Time;durP1;ratioP1;P1;durP2;ratioP2;P2;SDS_P1;SDS_P2;PMS_P1;PMS_P2;Temp;Humidity;BMP_temperature;BMP_pressure;BME280_temperature;BME280_humidity;BME280_pressure;Samples;Min_cycle;Max_cycle;Signal;HPM_P1;HPM_P2
2024/02/19 00:02:17;;;;;;;37.33;22.10;;;;;;;6.52;64.67;100783.63;4859399;29;101394;-80
2024/02/19 00:05:02;;;;;;;35.70;22.23;;;;;;;6.51;64.85;100777.53;4829705;29;101220;-80
2024/02/19 00:07:27;;;;;;;34.05;21.65;;;;;;;6.47;64.54;100765.41;4862293;29;96725;-80
2024/02/19 00:09:54;;;;;;;33.72;21.85;;;;;;;6.56;64.73;100767.06;4859930;29;96808;-80
2024/02/19 00:12:21;;;;;;;38.70;21.90;;;;;;;6.54;64.63;100754.06;4845060;29;101458;-80
2024/02/19 00:14:47;;;;;;;34.75;22.58;;;;;;;6.38;65.34;100756.84;4849645;29;101279;-79
2024/02/19 00:17:13;;;;;;;38.08;22.55;;;;;;;6.48;65.06;100751.47;4844006;28;96831;-79
2024/02/19 00:19:40;;;;;;;35.67;22.40;;;;;;;6.32;66.12;100755.16;4858943;28;96829;-80
2024/02/19 00:22:07;;;;;;;38.20;22.05;;;;;;;6.44;65.58;100741.97;4844847;28;100289;-80
2024/02/19 00:24:32;;;;;;;41.55;24.05;;;;;;;6.40;65.46;100742.00;4879349;28;101929;-79
2024/02/19 00:31:20;;;;;;;45.33;24.52;;;;;;;6.38;66.10;100736.81;4864716;28;96604;-80
2024/02/19 00:34:06;;;;;;;33.53;22.20;;;;;;;6.54;65.43;100722.75;4878455;28;100826;-79
2024/02/19 00:36:32;;;;;;;37.22;23.50;;;;;;;6.43;65.66;100713.28;4880684;28;98533;-80
2024/02/19 00:38:58;;;;;;;38.47;23.83;;;;;;;6.46;65.75;100714.16;4866863;28;96835;-79
2024/02/19 00:41:23;;;;;;;40.47;22.77;;;;;;;6.45;65.74;100711.53;4829868;29;96816;-79
2024/02/19 00:44:05;;;;;;;37.90;23.02;;;;;;;6.33;66.06;100704.72;4844516;29;97910;-79
2024/02/19 00:46:55;;;;;;;40.03;22.92;;;;;;;6.22;66.62;100699.59;4860480;29;100848;-80
2024/02/19 00:49:22;;;;;;;37.17;22.58;;;;;;;6.25;66.54;100701.31;4860007;29;96721;-79
2024/02/19 01:14:56;;;;;;;38.45;20.67;;;;;;;6.27;67.54;100655.25;4857972;29;96536;-79
2024/02/19 01:17:22;;;;;;;29.47;19.37;;;;;;;6.28;67.11;100646.53;4843918;29;96814;-80
2024/02/19 01:20:09;;;;;;;31.88;19.35;;;;;;;6.32;67.22;100635.19;4835490;29;96891;-80
2024/02/19 01:22:35;;;;;;;28.88;18.98;;;;;;;6.34;67.53;100629.09;4868821;29;97887;-80
2024/02/19 01:25:01;;;;;;;33.10;20.67;;;;;;;6.40;67.26;100628.16;4848641;29;101587;-80
2024/02/19 01:31:31;;;;;;;27.48;18.33;;;;;;;6.39;67.64;100620.34;4858805;29;96733;-80
2024/02/19 01:33:57;;;;;;;36.08;21.88;;;;;;;6.34;67.73;100612.56;4859457;28;100382;-80
2024/02/19 01:36:22;;;;;;;31.70;19.58;;;;;;;6.35;67.83;100614.31;4828983;29;101562;-80
2024/02/19 01:38:48;;;;;;;31.88;19.70;;;;;;;6.37;68.08;100603.84;4859272;29;96926;-80
2024/02/19 01:41:28;;;;;;;26.83;18.25;;;;;;;6.40;67.70;100596.88;4860488;29;96874;-80
2024/02/19 01:43:54;;;;;;;32.88;19.25;;;;;;;6.47;67.67;100590.69;4859959;29;98053;-80
2024/02/19 01:46:20;;;;;;;34.08;18.60;;;;;;;6.53;67.52;100585.38;4859638;29;100265;-80
2024/02/19 01:48:46;;;;;;;28.85;19.15;;;;;;;6.44;68.10;100582.03;4843481;29;96797;-80
2024/02/19 01:52:12;;;;;;;32.40;17.90;;;;;;;6.53;67.83;100584.53;4828753;29;96926;-80
2024/02/19 01:54:38;;;;;;;26.00;17.58;;;;;;;6.43;68.01;100575.97;4859275;29;101535;-79
2024/02/19 01:57:04;;;;;;;27.85;17.00;;;;;;;6.46;68.43;100575.06;4829015;29;101477;-80
2024/02/19 01:59:31;;;;;;;29.55;17.60;;;;;;;6.44;68.30;100566.38;4843549;29;96834;-80
2024/02/19 02:01:58;;;;;;;26.65;17.25;;;;;;;6.58;67.74;100562.72;4841373;29;97203;-80
2024/02/19 02:04:23;;;;;;;28.25;17.15;;;;;;;6.66;68.19;100561.72;4842188;29;97621;-80
2024/02/19 02:06:50;;;;;;;24.52;16.77;;;;;;;6.64;67.86;100556.53;4840855;28;100643;-80
2024/02/19 02:09:15;;;;;;;25.50;16.63;;;;;;;6.53;68.44;100540.19;4858120;29;96689;-80
2024/02/19 02:11:41;;;;;;;27.17;15.90;;;;;;;6.70;67.84;100546.03;4860636;28;96840;-80
2024/02/19 02:14:07;;;;;;;27.80;15.82;;;;;;;6.73;68.00;100537.28;4871545;28;101378;-80
2024/02/19 02:16:33;;;;;;;25.77;16.13;;;;;;;6.61;68.36;100540.94;4861175;28;100926;-79
2024/02/19 02:18:59;;;;;;;23.55;15.07;;;;;;;6.77;67.99;100537.19;4829371;28;96992;-80
2024/02/19 02:29:34;;;;;;;26.23;16.30;;;;;;;6.82;67.77;100524.09;4875029;28;97045;-81
2024/02/19 02:32:00;;;;;;;23.17;15.60;;;;;;;6.84;68.05;100524.09;4865380;28;96873;-80
2024/02/19 02:34:25;;;;;;;23.52;15.00;;;;;;;6.79;68.16;100517.19;4862822;28;96779;-80
2024/02/19 02:36:51;;;;;;;26.55;15.57;;;;;;;6.88;68.26;100517.94;4877554;28;98316;-80
2024/02/19 02:39:28;;;;;;;26.08;16.13;;;;;;;6.73;68.53;100511.19;4849020;28;101408;-80
2024/02/19 02:41:53;;;;;;;24.00;15.40;;;;;;;6.79;67.94;100517.19;4862712;28;96838;-80
2024/02/19 02:44:19;;;;;;;22.13;14.88;;;;;;;6.83;68.62;100509.31;4877691;28;96875;-80
2024/02/19 02:46:44;;;;;;;24.05;16.13;;;;;;;6.96;68.27;100510.84;4846488;28;100576;-79
2024/02/19 02:49:18;;;;;;;25.60;16.35;;;;;;;7.14;68.02;100501.84;4861778;28;98644;-80
2024/02/19 02:51:45;;;;;;;26.90;15.50;;;;;;;7.18;67.76;100508.72;4861130;28;97647;-80
2024/02/19 02:54:10;;;;;;;26.92;15.45;;;;;;;7.22;67.48;100494.75;4831974;28;97273;-80
2024/02/19 02:56:36;;;;;;;24.48;16.48;;;;;;;7.24;67.46;100495.56;4880551;28;97921;-80
2024/02/19 03:03:21;;;;;;;24.58;15.15;;;;;;;7.22;68.54;100492.13;4860458;28;96796;-79
2024/02/19 03:05:52;;;;;;;27.25;16.17;;;;;;;7.33;67.86;100486.69;4886768;28;97356;-80
2024/02/19 03:08:18;;;;;;;24.73;16.57;;;;;;;7.36;68.00;100478.81;4860793;28;101904;-79
2024/02/19 03:10:44;;;;;;;21.38;14.95;;;;;;;7.34;68.30;100478.00;4870629;28;101329;-80
2024/02/19 03:13:34;;;;;;;23.08;14.70;;;;;;;7.39;68.52;100477.03;4845461;28;97375;-79
2024/02/19 03:16:01;;;;;;;25.17;16.08;;;;;;;7.42;68.69;100482.19;4878360;28;96741;-80
2024/02/19 03:18:26;;;;;;;22.58;14.80;;;;;;;7.56;68.11;100474.06;4837347;28;101332;-80
2024/02/19 03:20:52;;;;;;;23.92;15.55;;;;;;;7.60;68.03;100477.50;4869504;28;100968;-80
2024/02/19 03:23:18;;;;;;;25.35;14.65;;;;;;;7.63;68.10;100467.00;4886184;28;96777;-80
2024/02/19 03:25:50;;;;;;;21.67;14.93;;;;;;;7.64;68.20;100464.34;4859119;28;96810;-80
2024/02/19 03:28:15;;;;;;;21.48;15.15;;;;;;;7.66;68.49;100465.19;4867554;28;101504;-80
2024/02/19 03:30:41;;;;;;;21.60;14.95;;;;;;;7.74;68.12;100465.03;4844259;28;101617;-80
2024/02/19 03:37:00;;;;;;;20.25;14.80;;;;;;;7.72;68.82;100446.75;4873716;28;96771;-81
2024/02/19 03:39:38;;;;;;;21.88;14.27;;;;;;;7.81;68.66;100444.84;4884970;28;98697;-79
2024/02/19 03:42:03;;;;;;;20.73;14.35;;;;;;;7.78;68.97;100445.78;4846483;28;102003;-80
2024/02/19 03:44:29;;;;;;;20.67;13.55;;;;;;;7.71;69.35;100442.44;4859380;28;98034;-79
2024/02/19 03:46:54;;;;;;;21.25;13.20;;;;;;;7.65;69.75;100439.06;4859311;28;97254;-80
2024/02/19 03:49:20;;;;;;;17.80;12.88;;;;;;;7.65;70.57;100439.06;4870981;28;97566;-80
2024/02/19 03:51:45;;;;;;;19.02;12.50;;;;;;;7.57;71.06;100430.53;4868760;28;100511;-80
2024/02/19 03:54:13;;;;;;;18.52;12.60;;;;;;;7.55;71.85;100438.41;4847334;28;96946;-80
2024/02/19 03:56:38;;;;;;;14.75;10.80;;;;;;;7.52;72.13;100429.75;4857484;28;96855;-80
2024/02/19 03:59:05;;;;;;;15.93;10.88;;;;;;;7.50;72.43;100421.94;4862036;28;102191;-80
2024/02/19 04:02:28;;;;;;;15.10;11.55;;;;;;;7.47;73.81;100428.09;4861858;28;100283;-80
2024/02/19 04:04:54;;;;;;;14.38;10.10;;;;;;;7.42;74.08;100423.88;4871794;28;96876;-80
2024/02/19 04:07:19;;;;;;;16.58;11.10;;;;;;;7.40;74.56;100425.63;4829118;28;96769;-80
2024/02/19 04:09:45;;;;;;;16.85;10.65;;;;;;;7.46;75.01;100426.38;4830610;28;101503;-79
2024/02/19 04:12:10;;;;;;;12.70;9.63;;;;;;;7.55;74.80;100421.88;4855829;28;100630;-80
2024/02/19 04:14:43;;;;;;;13.07;9.63;;;;;;;7.53;75.58;100419.28;4856974;28;96689;-80
2024/02/19 04:17:08;;;;;;;16.38;10.15;;;;;;;7.59;75.40;100413.06;4871912;28;97421;-80
2024/02/19 04:19:34;;;;;;;15.73;9.98;;;;;;;7.63;75.43;100406.91;4882417;28;98202;-80
2024/02/19 04:22:36;;;;;;;11.18;8.70;;;;;;;7.60;76.13;100399.13;4846152;28;96879;-80
2024/02/19 04:25:07;;;;;;;14.07;9.73;;;;;;;7.57;76.54;100393.97;4829568;28;97052;-80
2024/02/19 04:27:32;;;;;;;11.50;8.60;;;;;;;7.58;76.71;100388.69;4863754;28;96915;-80
2024/02/19 04:29:59;;;;;;;14.50;9.02;;;;;;;7.63;76.56;100384.25;4832326;28;101297;-80
2024/02/19 04:32:24;;;;;;;15.15;9.50;;;;;;;7.62;76.48;100379.91;4851457;28;101363;-80
2024/02/19 04:34:50;;;;;;;12.63;9.55;;;;;;;7.61;77.04;100374.72;4863028;28;96687;-80
2024/02/19 04:37:15;;;;;;;15.70;9.48;;;;;;;7.49;77.48;100378.44;4847125;28;97631;-80
2024/02/19 04:39:41;;;;;;;11.73;9.55;;;;;;;7.50;77.80;100372.31;4836487;28;97918;-81
2024/02/19 04:42:27;;;;;;;19.70;10.13;;;;;;;7.54;77.71;100365.28;4862638;28;100902;-80
2024/02/19 04:45:01;;;;;;;11.80;9.25;;;;;;;7.48;77.70;100368.91;4831835;28;96799;-79
2024/02/19 04:47:26;;;;;;;13.52;9.73;;;;;;;7.42;78.12;100358.56;4864806;28;96800;-80
2024/02/19 04:49:52;;;;;;;11.82;9.50;;;;;;;7.50;77.99;100361.88;4866029;28;101458;-80
2024/02/19 04:52:20;;;;;;;10.70;9.02;;;;;;;7.56;77.63;100356.50;4873530;28;100595;-80
2024/02/19 04:54:48;;;;;;;11.48;8.60;;;;;;;7.62;77.26;100359.03;4832979;28;96853;-80
2024/02/19 04:57:13;;;;;;;13.75;10.02;;;;;;;7.69;77.53;100355.38;4863015;28;96796;-80
2024/02/19 04:59:39;;;;;;;13.35;9.52;;;;;;;7.74;77.11;100346.56;4865034;28;102151;-80
2024/02/19 05:02:14;;;;;;;15.25;10.32;;;;;;;7.77;77.09;100352.59;4861643;28;97856;-81
2024/02/19 05:04:44;;;;;;;14.10;8.82;;;;;;;7.85;76.74;100348.06;4861127;28;96797;-80
2024/02/19 05:07:09;;;;;;;15.65;9.95;;;;;;;7.74;77.13;100341.34;4854826;28;96834;-80
2024/02/19 05:09:40;;;;;;;13.93;9.77;;;;;;;7.61;77.48;100330.31;4861151;28;97534;-80
2024/02/19 05:12:06;;;;;;;12.50;9.70;;;;;;;7.64;77.39;100338.06;4845707;28;101172;-80
2024/02/19 05:14:31;;;;;;;15.38;9.32;;;;;;;7.61;77.71;100330.31;4830783;28;96753;-80
2024/02/19 05:16:57;;;;;;;12.60;9.52;;;;;;;7.71;77.54;100334.44;4859232;28;96871;-80
2024/02/19 05:19:23;;;;;;;14.23;9.45;;;;;;;7.62;77.95;100335.50;4877209;28;97831;-80
2024/02/19 05:21:48;;;;;;;14.02;8.52;;;;;;;7.70;77.47;100330.94;4860647;28;100975;-80
2024/02/19 05:28:07;;;;;;;14.13;8.88;;;;;;;7.65;77.58;100326.72;4870230;28;96775;-79
2024/02/19 05:30:33;;;;;;;11.23;8.35;;;;;;;7.66;78.05;100323.22;4860300;28;101775;-79
2024/02/19 05:33:00;;;;;;;13.13;8.68;;;;;;;7.59;78.31;100319.91;4844849;28;101726;-79
2024/02/19 05:35:26;;;;;;;12.50;8.07;;;;;;;7.70;77.79;100312.66;4860492;28;96837;-79
2024/02/19 05:37:52;;;;;;;12.80;8.48;;;;;;;7.79;77.72;100310.75;4858484;28;97290;-80
2024/02/19 05:40:17;;;;;;;9.57;7.65;;;;;;;7.82;77.16;100305.44;4842735;28;100980;-79
2024/02/19 05:42:46;;;;;;;11.73;7.85;;;;;;;7.78;77.43;100309.03;4849579;28;102224;-79
2024/02/19 05:45:28;;;;;;;10.38;7.78;;;;;;;7.75;77.72;100299.50;4847961;28;96653;-78
2024/02/19 05:47:54;;;;;;;12.25;8.10;;;;;;;7.71;77.55;100303.94;4876739;28;96748;-79
2024/02/19 05:50:19;;;;;;;11.98;8.10;;;;;;;7.79;77.50;100314.19;4875526;28;100955;-79
2024/02/19 05:53:28;;;;;;;11.40;7.22;;;;;;;7.75;77.99;100306.50;4848735;28;100264;-77
2024/02/19 05:59:19;;;;;;;10.70;6.63;;;;;;;7.80;77.58;100297.66;4862677;28;96754;-77
2024/02/19 06:01:44;;;;;;;7.82;6.15;;;;;;;7.81;77.63;100308.97;4861978;28;99841;-77
2024/02/19 06:04:39;;;;;;;7.97;6.18;;;;;;;7.82;78.08;100302.81;4861104;28;101045;-77
2024/02/19 06:15:24;;;;;;;7.28;5.40;;;;;;;8.04;76.64;100292.75;4878282;28;96516;-79
2024/02/19 06:17:50;;;;;;;7.32;4.90;;;;;;;8.06;77.15;100291.81;4846016;28;101445;-81
2024/02/19 06:20:16;;;;;;;12.48;5.95;;;;;;;8.09;77.13;100290.88;4847087;28;97764;-80
2024/02/19 06:23:02;;;;;;;8.77;5.80;;;;;;;8.12;76.72;100283.81;4846920;28;96794;-80
2024/02/19 06:29:43;;;;;;;7.45;4.75;;;;;;;8.14;76.89;100287.25;4866788;28;96905;-80
2024/02/19 06:32:16;;;;;;;6.97;5.45;;;;;;;8.23;76.77;100278.31;4831274;28;96701;-80
2024/02/19 06:34:41;;;;;;;8.05;5.45;;;;;;;8.26;76.49;100275.63;4862782;28;96835;-81
2024/02/19 06:37:07;;;;;;;6.60;5.03;;;;;;;8.25;76.51;100273.03;4850250;29;101627;-81
2024/02/19 06:39:35;;;;;;;10.50;5.85;;;;;;;8.29;76.42;100278.16;4853594;29;100130;-82
2024/02/19 06:42:00;;;;;;;9.07;5.22;;;;;;;8.31;75.86;100273.75;4868340;29;96877;-81
2024/02/19 06:45:08;;;;;;;8.32;5.00;;;;;;;8.29;76.00;100266.81;4864554;29;96673;-80
2024/02/19 06:59:30;;;;;;;6.18;3.95;;;;;;;8.48;76.07;100260.25;4786644;29;97104;-80
2024/02/19 07:01:57;;;;;;;5.72;4.18;;;;;;;8.51;76.01;100261.94;4755981;29;100310;-80
2024/02/19 07:04:23;;;;;;;7.95;4.57;;;;;;;8.48;75.94;100268.09;4790663;29;101552;-80
2024/02/19 07:06:49;;;;;;;6.38;4.43;;;;;;;8.50;75.67;100253.25;4802659;29;96583;-81
2024/02/19 07:09:17;;;;;;;7.20;4.57;;;;;;;8.53;75.81;100257.53;4826139;29;96552;-81
2024/02/19 07:15:12;;;;;;;7.03;3.70;;;;;;;8.53;75.38;100257.53;4790577;29;101716;-79
2024/02/19 07:17:37;;;;;;;5.85;4.22;;;;;;;8.56;75.84;100252.22;4776531;29;98112;-79
2024/02/19 07:20:03;;;;;;;6.32;4.22;;;;;;;8.59;75.51;100257.38;4804465;29;97153;-79
2024/02/19 07:22:29;;;;;;;10.23;4.40;;;;;;;8.67;75.88;100251.91;4808702;29;98135;-78
2024/02/19 07:29:33;;;;;;;5.40;4.10;;;;;;;8.62;75.71;100257.28;4843901;29;96616;-78
2024/02/19 07:32:45;;;;;;;5.35;3.70;;;;;;;8.63;75.38;100245.06;4846069;29;96812;-78
2024/02/19 07:35:10;;;;;;;6.30;4.30;;;;;;;8.64;75.83;100241.53;4847554;29;98228;-79
2024/02/19 07:37:36;;;;;;;6.30;4.22;;;;;;;8.70;75.49;100231.78;4844258;29;101495;-78
2024/02/19 07:40:02;;;;;;;6.72;5.20;;;;;;;8.73;75.64;100236.91;4811258;29;96934;-77
2024/02/19 07:42:27;;;;;;;7.13;4.55;;;;;;;8.82;75.54;100231.41;4846510;29;96797;-77
2024/02/19 12:06:24;;;;;;;4.75;1.40;;;;;;;9.87;67.03;100315.63;4883097;23;97458;-79
2024/02/19 12:08:49;;;;;;;1.33;1.00;;;;;;;9.85;66.94;100319.22;4869666;28;101368;-80
2024/02/19 12:11:15;;;;;;;3.80;1.45;;;;;;;9.75;66.93;100329.97;4872696;28;99633;-79
2024/02/19 12:13:43;;;;;;;2.53;1.35;;;;;;;9.78;67.09;100318.53;4872860;28;96581;-80
2024/02/19 12:20:01;;;;;;;1.48;1.30;;;;;;;9.83;67.66;100339.34;4900867;28;96896;-80
2024/02/19 12:26:17;;;;;;;2.47;1.55;;;;;;;9.71;67.93;100338.81;4903620;28;96566;-80
2024/02/19 12:28:42;;;;;;;2.58;1.42;;;;;;;9.72;68.90;100332.69;4873859;28;96935;-80
2024/02/19 12:31:08;;;;;;;3.90;1.58;;;;;;;9.56;70.80;100349.78;4885983;28;102448;-78
2024/02/19 12:38:22;;;;;;;1.35;1.25;;;;;;;9.57;72.65;100346.28;4900251;28;96701;-80
2024/02/19 12:44:36;;;;;;;2.17;1.42;;;;;;;9.46;73.67;100359.69;4887368;28;97082;-80
2024/02/19 12:47:02;;;;;;;1.83;1.35;;;;;;;9.45;73.99;100365.84;4885199;28;101331;-79
2024/02/19 12:49:27;;;;;;;2.85;1.27;;;;;;;9.52;73.85;100358.63;4901935;28;97088;-81
2024/02/19 12:52:26;;;;;;;1.63;1.40;;;;;;;9.59;73.77;100356.69;4875940;28;96757;-80
2024/02/19 12:54:53;;;;;;;1.50;1.40;;;;;;;9.42;73.36;100357.19;4870007;28;98093;-78
2024/02/19 12:57:21;;;;;;;1.75;1.30;;;;;;;9.48;73.06;100365.75;4872086;28;100218;-79
2024/02/19 12:59:47;;;;;;;1.30;1.20;;;;;;;9.51;72.16;100370.88;4890535;28;96990;-79
2024/02/19 13:02:15;;;;;;;4.63;1.27;;;;;;;9.57;71.72;100372.47;4906100;28;96970;-77
2024/02/19 13:08:32;;;;;;;2.60;1.20;;;;;;;9.43;71.92;100378.09;4876702;28;97053;-78
2024/02/19 13:10:58;;;;;;;1.33;1.23;;;;;;;9.42;71.47;100370.28;4885509;28;96647;-77
2024/02/19 13:13:23;;;;;;;1.30;1.20;;;;;;;9.40;71.47;100388.66;4867281;28;96718;-77
2024/02/19 13:31:28;;;;;;;1.65;1.40;;;;;;;9.63;68.59;100384.50;5072473;27;96670;-78
2024/02/19 13:34:00;;;;;;;1.70;1.52;;;;;;;9.48;68.44;100373.59;5051599;27;96943;-77
2024/02/19 13:36:25;;;;;;;3.13;1.52;;;;;;;9.47;68.35;100386.72;5074681;27;101334;-80
2024/02/19 13:38:51;;;;;;;2.53;1.48;;;;;;;9.45;68.47;100383.28;5063851;27;97369;-79
2024/02/19 13:41:16;;;;;;;2.80;1.65;;;;;;;9.46;68.82;100390.25;5051286;27;96690;-78
2024/02/19 13:43:42;;;;;;;2.13;1.60;;;;;;;9.32;69.03;100392.41;5053728;27;97855;-79
2024/02/19 13:46:08;;;;;;;2.20;1.65;;;;;;;9.36;69.29;100389.66;5052078;27;101589;-79
2024/02/19 13:48:34;;;;;;;2.00;1.50;;;;;;;9.33;69.67;100394.97;5061732;27;100670;-78
2024/02/19 13:51:00;;;;;;;2.22;1.25;;;;;;;9.21;70.05;100408.41;5061576;27;97238;-78
2024/02/19 13:53:27;;;;;;;2.35;1.90;;;;;;;9.17;70.98;100412.03;5081760;27;98422;-78
2024/02/19 13:55:54;;;;;;;3.53;1.38;;;;;;;9.23;71.09;100414.47;5065906;27;98028;-80
2024/02/19 13:58:23;;;;;;;1.70;1.60;;;;;;;9.23;70.63;100415.31;5044988;27;101598;-80
2024/02/19 14:00:50;;;;;;;2.95;1.48;;;;;;;9.21;70.54;100418.88;5055354;27;97387;-79
2024/02/19 14:03:16;;;;;;;1.63;1.30;;;;;;;9.21;70.03;100422.34;5037240;27;98181;-80
2024/02/19 14:05:41;;;;;;;2.42;1.50;;;;;;;9.15;70.50;100413.81;5067251;27;98046;-78
2024/02/19 14:08:08;;;;;;;2.08;1.50;;;;;;;9.13;71.17;100429.56;5040581;27;101221;-78
2024/02/19 14:10:34;;;;;;;2.95;1.60;;;;;;;9.11;71.61;100427.91;5057007;27;96909;-78
2024/02/19 14:13:03;;;;;;;2.08;1.70;;;;;;;9.00;71.48;100436.88;5057199;27;97281;-78
2024/02/19 14:15:29;;;;;;;2.28;1.30;;;;;;;9.02;71.52;100442.94;5065639;27;98187;-78
2024/02/19 14:17:54;;;;;;;3.53;1.17;;;;;;;9.02;71.14;100436.84;5039796;27;101435;-78
2024/02/19 14:20:20;;;;;;;3.20;1.42;;;;;;;9.11;71.02;100448.84;5059341;27;97160;-80
2024/02/19 14:22:47;;;;;;;2.67;1.20;;;;;;;9.15;70.60;100437.38;5055543;27;97349;-80
2024/02/19 14:25:12;;;;;;;1.58;1.20;;;;;;;9.14;70.41;100443.53;5042420;27;100300;-83
2024/02/19 14:27:45;;;;;;;2.15;1.20;;;;;;;9.09;69.54;100451.50;5057563;27;97994;-80
2024/02/19 14:30:12;;;;;;;3.92;1.30;;;;;;;9.13;69.26;100460.13;5047494;27;98328;-80
2024/02/19 14:32:39;;;;;;;1.77;1.05;;;;;;;9.07;68.73;100459.41;5041614;27;96939;-80
2024/02/19 14:35:05;;;;;;;0.85;0.85;;;;;;;9.07;68.94;100464.66;5040135;27;101573;-79
2024/02/19 14:37:34;;;;;;;2.15;1.10;;;;;;;9.23;68.11;100472.09;5027641;27;101482;-78
2024/02/19 14:40:00;;;;;;;1.20;1.00;;;;;;;9.11;67.54;100454.94;5017695;27;97191;-79
2024/02/19 14:42:25;;;;;;;3.58;1.17;;;;;;;9.14;67.62;100469.72;5034091;27;96846;-80
2024/02/19 14:44:51;;;;;;;3.25;1.60;;;;;;;9.18;66.65;100479.22;5037604;27;102096;-79
2024/02/19 14:47:17;;;;;;;2.22;1.75;;;;;;;9.26;66.54;100477.25;5041991;27;101586;-79
2024/02/19 14:49:42;;;;;;;1.88;1.35;;;;;;;9.12;66.76;100482.00;5037713;27;97685;-79
2024/02/19 14:52:08;;;;;;;2.03;1.33;;;;;;;9.17;66.85;100486.22;5036332;27;97030;-80
2024/02/19 14:54:33;;;;;;;4.35;1.40;;;;;;;9.24;66.35;100479.03;5027327;27;101342;-77
2024/02/19 14:56:59;;;;;;;2.47;2.00;;;;;;;9.21;66.50;100482.59;5043718;27;102250;-80
2024/02/19 14:59:26;;;;;;;2.50;1.80;;;;;;;9.22;66.60;100489.59;5034138;27;97263;-79
2024/02/19 15:01:52;;;;;;;2.17;1.67;;;;;;;9.27;66.24;100486.81;5052097;27;97281;-83
2024/02/19 15:04:17;;;;;;;2.90;1.70;;;;;;;9.25;65.89;100501.72;5025122;27;101372;-82
2024/02/19 15:06:43;;;;;;;2.80;1.58;;;;;;;9.27;66.42;100495.53;5033597;27;96803;-80
2024/02/19 15:09:09;;;;;;;2.92;2.00;;;;;;;9.42;65.89;100490.81;5035369;27;97780;-80
2024/02/19 15:11:36;;;;;;;2.05;1.50;;;;;;;9.37;65.71;100500.56;5034968;27;97219;-79
2024/02/19 15:14:01;;;;;;;2.10;1.27;;;;;;;9.26;65.50;100508.69;5034686;27;101783;-83
2024/02/19 15:16:27;;;;;;;2.33;1.67;;;;;;;9.21;64.94;100505.31;5047881;27;98378;-79
2024/02/19 15:18:52;;;;;;;2.75;1.10;;;;;;;9.16;65.10;100515.94;5041269;27;96809;-81
2024/02/19 15:21:18;;;;;;;2.35;0.90;;;;;;;9.17;65.37;100511.56;5024681;27;97351;-82
2024/02/19 15:23:43;;;;;;;1.33;0.90;;;;;;;9.20;65.35;100498.38;5039366;27;99868;-80
2024/02/19 15:26:10;;;;;;;2.30;1.67;;;;;;;9.22;65.42;100501.78;5020931;27;101052;-77
2024/02/19 15:28:37;;;;;;;2.10;1.20;;;;;;;9.28;64.74;100513.00;5044372;27;97078;-80
2024/02/19 15:31:03;;;;;;;2.88;2.05;;;;;;;9.27;64.62;100521.72;5033949;27;96958;-81
2024/02/19 15:33:29;;;;;;;3.15;1.70;;;;;;;9.36;64.90;100515.41;5021857;27;100696;-79
2024/02/19 15:35:55;;;;;;;2.65;1.00;;;;;;;9.44;64.88;100523.06;5029606;27;101247;-80
2024/02/19 15:38:21;;;;;;;6.40;3.85;;;;;;;9.47;64.28;100525.59;5039683;27;97210;-80
2024/02/19 15:40:47;;;;;;;4.22;1.20;;;;;;;9.34;64.20;100529.44;5011567;27;96750;-80
2024/02/19 15:43:12;;;;;;;2.75;1.02;;;;;;;9.34;64.56;100527.69;5036584;27;98658;-80
2024/02/19 15:45:43;;;;;;;3.72;0.93;;;;;;;9.35;64.52;100531.19;5054134;27;101241;-79
2024/02/19 15:48:12;;;;;;;5.47;1.00;;;;;;;9.30;63.75;100537.38;5028846;28;96762;-80
2024/02/19 15:50:38;;;;;;;3.25;1.90;;;;;;;9.29;63.83;100526.94;5021552;27;97345;-83
2024/02/19 15:53:05;;;;;;;4.93;1.10;;;;;;;9.39;63.14;100540.66;5015827;27;101191;-81
2024/02/19 15:55:30;;;;;;;1.60;1.20;;;;;;;9.40;63.45;100534.53;5044160;27;100940;-82
2024/02/19 15:57:56;;;;;;;2.03;1.00;;;;;;;9.44;63.58;100538.78;5031703;27;97252;-82
2024/02/19 16:00:22;;;;;;;1.83;1.13;;;;;;;9.40;63.81;100537.16;5000806;27;96911;-80
2024/02/19 16:02:47;;;;;;;4.28;1.25;;;;;;;9.44;63.75;100537.03;5034333;27;97703;-79
2024/02/19 16:05:13;;;;;;;1.42;0.90;;;;;;;9.39;64.06;100543.28;5051917;27;101270;-82
2024/02/19 16:07:39;;;;;;;1.67;1.15;;;;;;;9.40;63.95;100539.78;5041965;27;97382;-80
2024/02/19 16:10:08;;;;;;;8.43;5.43;;;;;;;9.41;64.61;100547.59;5036490;27;97238;-81
2024/02/19 16:12:33;;;;;;;3.47;1.50;;;;;;;9.37;64.58;100539.88;5072145;27;98429;-80
2024/02/19 16:14:59;;;;;;;2.30;1.40;;;;;;;9.25;65.00;100543.63;5048736;27;98028;-81
2024/02/19 16:17:24;;;;;;;4.40;1.00;;;;;;;9.29;65.33;100554.00;5030740;27;97318;-80
2024/02/19 16:19:53;;;;;;;2.75;1.17;;;;;;;9.29;65.33;100558.38;5023796;27;97282;-80
2024/02/19 16:22:19;;;;;;;2.15;0.90;;;;;;;9.28;65.13;100549.66;5053422;27;101403;-81
2024/02/19 16:24:45;;;;;;;2.33;1.40;;;;;;;9.34;65.67;100566.09;5018978;27;100709;-80
2024/02/19 16:27:11;;;;;;;2.30;1.20;;;;;;;9.36;65.67;100570.41;5007778;27;96883;-82
2024/02/19 16:29:37;;;;;;;2.22;1.33;;;;;;;9.26;66.03;100566.31;5040213;27;96984;-78
2024/02/19 16:32:02;;;;;;;2.92;1.30;;;;;;;9.14;66.53;100575.34;5019967;27;101383;-80
2024/02/19 16:34:28;;;;;;;2.05;1.38;;;;;;;9.29;66.85;100582.81;5024721;27;97399;-81
2024/02/19 16:36:54;;;;;;;1.83;1.40;;;;;;;9.27;66.61;100584.59;5042810;27;97106;-84
2024/02/19 16:39:20;;;;;;;2.42;1.38;;;;;;;9.44;66.62;100593.81;5015715;27;97230;-80
2024/02/19 16:41:45;;;;;;;3.58;1.77;;;;;;;9.36;66.82;100593.13;5037097;27;100606;-80
2024/02/19 16:44:11;;;;;;;3.17;1.90;;;;;;;9.36;67.27;100591.38;5042632;27;101296;-80
2024/02/19 16:46:36;;;;;;;3.60;1.98;;;;;;;9.28;67.23;100591.59;5039596;27;96762;-81
2024/02/19 16:49:02;;;;;;;3.42;2.33;;;;;;;9.32;67.94;100591.50;5034606;28;96844;-80
2024/02/19 16:51:28;;;;;;;3.85;2.33;;;;;;;9.37;67.72;100585.25;5034763;27;101293;-79
2024/02/19 16:53:55;;;;;;;3.80;2.40;;;;;;;9.35;67.98;100591.44;5053895;27;98129;-79
2024/02/19 16:56:21;;;;;;;2.65;2.10;;;;;;;9.39;67.61;100591.28;5060852;27;97235;-80
2024/02/19 16:58:47;;;;;;;3.88;2.15;;;;;;;9.42;67.74;100590.38;5037151;27;98075;-81
2024/02/19 17:01:15;;;;;;;6.57;2.70;;;;;;;9.40;67.96;100602.66;5057169;27;101168;-81
2024/02/19 17:03:40;;;;;;;4.30;2.35;;;;;;;9.41;67.85;100600.00;5020180;27;101034;-82
2024/02/19 17:06:06;;;;;;;3.58;2.30;;;;;;;9.44;67.73;100602.53;5037434;27;97223;-79
2024/02/19 17:08:31;;;;;;;3.60;2.70;;;;;;;9.43;68.01;100607.84;5038441;27;96908;-79
2024/02/19 17:10:57;;;;;;;3.58;2.58;;;;;;;9.36;68.09;100599.22;5035936;27;101156;-80
2024/02/19 17:13:23;;;;;;;4.05;2.55;;;;;;;9.23;68.57;100610.94;5034108;28;96753;-82
2024/02/19 17:15:48;;;;;;;3.63;2.60;;;;;;;9.16;68.56;100609.34;5033173;27;97618;-81
2024/02/19 17:18:14;;;;;;;3.53;2.20;;;;;;;9.28;68.53;100609.91;5035198;27;97152;-82
2024/02/19 17:20:40;;;;;;;3.72;2.25;;;;;;;9.40;68.74;100605.28;5022367;27;101542;-82
2024/02/19 17:23:10;;;;;;;6.00;2.38;;;;;;;9.43;68.34;100602.59;5045956;27;98246;-79
2024/02/19 17:25:36;;;;;;;3.00;2.08;;;;;;;9.28;69.06;100601.22;5051790;27;96897;-80
2024/02/19 17:28:03;;;;;;;3.78;2.50;;;;;;;9.37;68.37;100607.97;5020204;28;97060;-80
2024/02/19 17:30:28;;;;;;;4.15;2.72;;;;;;;9.41;68.38;100610.47;5046235;27;101130;-79
2024/02/19 17:32:54;;;;;;;5.00;2.38;;;;;;;9.43;68.55;100618.31;5046628;27;101771;-80
2024/02/19 17:35:20;;;;;;;4.03;2.50;;;;;;;9.43;68.66;100620.94;5045627;27;98271;-80
2024/02/19 17:37:45;;;;;;;3.38;2.25;;;;;;;9.47;68.31;100625.19;5035364;27;97062;-80
2024/02/19 17:40:11;;;;;;;3.88;2.63;;;;;;;9.43;68.57;100624.41;5049753;27;98029;-80
2024/02/19 17:42:37;;;;;;;3.05;2.13;;;;;;;9.37;69.29;100626.31;5035521;27;101606;-77
2024/02/19 17:45:04;;;;;;;4.18;2.38;;;;;;;9.32;69.35;100621.19;5023621;27;96771;-84
2024/02/19 17:47:30;;;;;;;4.30;2.35;;;;;;;9.40;69.39;100627.09;5031449;27;97920;-84
2024/02/19 17:49:56;;;;;;;3.08;2.20;;;;;;;9.47;69.35;100625.19;5033191;27;98493;-78
2024/02/19 17:52:21;;;;;;;3.50;2.33;;;;;;;9.46;69.33;100629.56;5034590;28;101422;-83
2024/02/19 17:54:47;;;;;;;2.92;2.20;;;;;;;9.48;70.04;100630.41;5037771;27;97140;-80